Time;durP1;ratioP1;P1;durP2;ratioP2;P2;SDS_P1;SDS_P2;PMS_P1;PMS_P2;Temp;Humidity;BMP_temperature;BMP_pressure;BME280_temperature;BME280_humidity;BME280_pressure;Samples;Min_cycle;Max_cycle;Signal;HPM_P1;HPM_P2
2023/05/06 00:00:33;;;;;;;0.10;0.10;;;;;;;12.98;100.00;101147.88;4977475;28;20237;-78
2023/05/06 00:03:01;;;;;;;0.10;0.10;;;;;;;13.01;100.00;101159.47;4987529;28;20232;-80
2023/05/06 00:05:28;;;;;;;0.10;0.10;;;;;;;13.05;100.00;101163.94;4986668;28;20243;-81
2023/05/06 00:07:56;;;;;;;0.10;0.10;;;;;;;13.08;100.00;101169.28;4986974;28;20228;-79
2023/05/06 00:10:23;;;;;;;0.30;0.30;;;;;;;13.11;100.00;101173.72;4983716;28;20240;-78
2023/05/06 00:12:51;;;;;;;0.10;0.10;;;;;;;13.12;100.00;101168.44;4987269;28;20292;-81
2023/05/06 00:15:18;;;;;;;1.00;0.98;;;;;;;13.14;100.00;101174.66;4985648;28;20314;-82
2023/05/06 00:17:46;;;;;;;0.00;0.00;;;;;;;13.13;100.00;101158.69;4984545;28;20229;-79
2023/05/06 00:20:13;;;;;;;0.10;0.10;;;;;;;13.18;100.00;101159.66;4985851;28;20232;-81
2023/05/06 00:22:41;;;;;;;0.10;0.10;;;;;;;13.12;100.00;101163.13;4984859;28;20247;-79
2023/05/06 00:25:08;;;;;;;0.10;0.10;;;;;;;13.11;100.00;101156.03;4984723;28;20269;-79
2023/05/06 00:27:37;;;;;;;0.20;0.20;;;;;;;13.08;100.00;101163.06;4978120;28;20236;-81
2023/05/06 00:30:05;;;;;;;0.17;0.17;;;12.80;99.90;;;13.07;100.00;101159.53;4984775;28;20365;-81
2023/05/06 00:32:33;;;;;;;0.10;0.10;;;;;;;13.14;100.00;101157.81;4984757;28;20279;-83
2023/05/06 00:35:00;;;;;;;0.10;0.10;;;;;;;13.12;100.00;101152.50;4984245;28;20240;-78
2023/05/06 00:37:28;;;;;;;0.10;0.10;;;;;;;13.10;100.00;101156.00;4982554;28;20272;-79
2023/05/06 00:39:55;;;;;;;0.10;0.10;;;;;;;13.03;100.00;101159.47;4987912;28;20247;-83
2023/05/06 00:42:23;;;;;;;0.30;0.30;;;;;;;13.03;100.00;101171.00;4987785;28;20232;-80
2023/05/06 00:44:50;;;;;;;0.10;0.10;;;;;;;12.99;100.00;101163.81;4987197;28;20236;-78
2023/05/06 00:47:18;;;;;;;0.30;0.30;;;;;;;13.13;100.00;101170.22;4982541;28;20256;-79
2023/05/06 00:49:50;;;;;;;0.10;0.10;;;12.90;99.90;;;13.10;100.00;101166.63;4977358;28;20260;-79
2023/05/06 00:52:18;;;;;;;0.10;0.10;;;12.90;99.90;;;13.07;100.00;101161.28;4986367;28;20244;-81
2023/05/06 00:54:46;;;;;;;0.10;0.10;;;;;;;12.98;100.00;101161.16;4991152;28;20291;-79
2023/05/06 00:57:13;;;;;;;0.47;0.47;;;;;;;12.99;100.00;101154.97;4984666;28;20291;-79
2023/05/06 00:59:41;;;;;;;0.55;0.55;;;12.70;99.90;;;12.92;100.00;101153.13;4986325;28;20290;-81
2023/05/06 01:02:09;;;;;;;0.10;0.10;;;;;;;12.89;100.00;101151.31;4984060;28;20290;-78
2023/05/06 01:04:46;;;;;;;0.10;0.10;;;12.60;99.90;;;12.78;100.00;101142.34;4986552;28;20235;-78
2023/05/06 01:07:29;;;;;;;0.10;0.10;;;12.50;99.90;;;12.69;100.00;101140.47;4980450;28;20728;-80
2023/05/06 01:10:21;;;;;;;0.30;0.30;;;12.50;99.90;;;12.79;100.00;101152.09;4985477;28;20306;-79
2023/05/06 01:13:11;;;;;;;0.10;0.10;;;12.50;99.90;;;12.72;100.00;101144.94;4982784;28;20648;-80
2023/05/06 01:15:49;;;;;;;1.55;0.50;;;12.40;99.90;;;12.59;100.00;101148.31;4988924;28;20239;-78
2023/05/06 01:18:21;;;;;;;0.40;0.40;;;12.30;99.90;;;12.45;100.00;101146.38;4983463;28;20267;-79
2023/05/06 01:20:52;;;;;;;0.10;0.10;;;12.10;99.90;;;12.30;100.00;101140.00;4986931;28;20236;-79
2023/05/06 01:23:20;;;;;;;0.10;0.10;;;;;;;12.43;100.00;101149.91;4989296;28;20677;-78
2023/05/06 01:25:47;;;;;;;0.10;0.10;;;;;;;12.43;100.00;101153.44;4987067;28;20232;-80
2023/05/06 01:28:15;;;;;;;0.80;0.40;;;;;;;12.44;100.00;101167.59;4987418;28;20244;-79
2023/05/06 01:30:50;;;;;;;0.10;0.10;;;12.20;99.90;;;12.39;100.00;101162.22;4991462;28;20232;-78
2023/05/06 01:33:58;;;;;;;0.10;0.10;;;12.10;99.90;;;12.36;100.00;101162.19;4986815;28;20245;-82
2023/05/06 01:36:47;;;;;;;0.10;0.10;;;12.10;99.90;;;12.40;100.00;101171.97;4986362;28;20244;-81
2023/05/06 01:39:14;;;;;;;0.10;0.10;;;;;;;12.34;100.00;101165.69;4985488;28;20232;-78
2023/05/06 01:41:43;;;;;;;0.05;0.05;;;12.10;99.90;;;12.38;100.00;101181.66;4987905;28;20315;-78
2023/05/06 01:44:10;;;;;;;0.10;0.10;;;;;;;12.29;100.00;101176.22;4984212;28;20263;-81
2023/05/06 01:46:38;;;;;;;0.10;0.10;;;;;;;12.18;100.00;101173.44;4985828;28;20248;-78
2023/05/06 01:49:10;;;;;;;0.10;0.10;;;12.00;99.90;;;12.19;100.00;101179.63;4988313;28;20311;-78
2023/05/06 01:51:37;;;;;;;0.10;0.10;;;11.90;99.90;;;12.17;100.00;101190.22;4988666;28;20232;-79
2023/05/06 01:54:05;;;;;;;0.10;0.10;;;;;;;12.11;100.00;101190.13;4991038;28;20240;-79
2023/05/06 01:56:32;;;;;;;0.10;0.10;;;;;;;12.07;100.00;101190.06;4988886;28;20260;-78
2023/05/06 01:59:00;;;;;;;0.10;0.10;;;;;;;12.06;100.00;101193.56;4986247;28;20256;-78
2023/05/06 02:01:27;;;;;;;0.45;0.45;;;;;;;11.98;100.00;101190.81;4985939;28;20287;-81
2023/05/06 02:03:54;;;;;;;0.10;0.10;;;11.80;99.90;;;12.00;100.00;101193.47;4989569;28;20234;-79
2023/05/06 02:06:22;;;;;;;0.10;0.10;;;;;;;12.00;100.00;101190.84;4987771;28;20233;-78
2023/05/06 02:08:50;;;;;;;0.10;0.10;;;;;;;12.07;100.00;101206.84;4983242;28;20299;-80
2023/05/06 02:11:17;;;;;;;0.10;0.10;;;;;;;11.88;100.00;101194.19;5004687;28;20319;-78
2023/05/06 02:13:44;;;;;;;0.10;0.10;;;11.70;99.90;;;11.91;100.00;101199.53;4987423;28;20233;-78
2023/05/06 02:16:12;;;;;;;0.10;0.10;;;;;;;11.76;100.00;101194.84;4988981;28;20240;-79
2023/05/06 02:18:40;;;;;;;0.10;0.10;;;11.70;99.90;;;11.97;100.00;101204.03;4989112;28;20608;-79
2023/05/06 02:21:08;;;;;;;0.10;0.10;;;;;;;11.86;100.00;101206.53;4988474;28;20818;-79
2023/05/06 02:23:36;;;;;;;0.10;0.10;;;;;;;11.70;100.00;101196.47;5002957;28;20232;-80
2023/05/06 02:26:04;;;;;;;0.10;0.10;;;;;;;11.72;100.00;101208.91;4990143;28;20279;-79
2023/05/06 02:28:31;;;;;;;0.40;0.40;;;;;;;11.69;100.00;101207.94;4988538;28;20236;-80
2023/05/06 02:30:58;;;;;;;0.10;0.10;;;;;;;11.52;100.00;101200.59;4990693;28;20236;-80
2023/05/06 02:33:26;;;;;;;0.30;0.30;;;;;;;11.38;100.00;101193.28;4989722;28;20258;-80
2023/05/06 02:35:53;;;;;;;0.10;0.10;;;;;;;11.36;100.00;101187.06;4982506;28;20355;-79
2023/05/06 02:38:21;;;;;;;0.50;0.50;;;;;;;11.42;100.00;101195.09;4982128;28;20228;-80
2023/05/06 02:40:48;;;;;;;0.40;0.40;;;;;;;11.40;100.00;101192.44;4985461;28;20241;-78
2023/05/06 02:43:16;;;;;;;0.10;0.10;;;;;;;11.69;100.00;101210.59;4989089;28;20655;-81
2023/05/06 02:45:43;;;;;;;0.10;0.10;;;;;;;11.68;100.00;101216.75;4982481;28;20279;-79
2023/05/06 02:48:11;;;;;;;0.10;0.10;;;;;;;11.66;100.00;101216.72;4985900;28;20236;-82
2023/05/06 02:50:38;;;;;;;0.52;0.52;;;;;;;11.70;100.00;101215.03;4985379;28;20236;-80
2023/05/06 02:53:07;;;;;;;0.10;0.10;;;;;;;11.69;100.00;101213.22;4982779;28;20641;-78
2023/05/06 02:55:35;;;;;;;0.15;0.15;;;;;;;11.66;100.00;101210.53;4987979;28;20251;-80
2023/05/06 02:58:02;;;;;;;0.15;0.15;;;;;;;11.50;100.00;101206.72;4988035;28;20235;-79
2023/05/06 03:00:30;;;;;;;0.63;0.63;;;;;;;11.53;100.00;101201.47;4984874;28;20267;-79
2023/05/06 03:02:57;;;;;;;0.10;0.10;;;;;;;11.59;100.00;101201.59;4985129;28;20319;-81
2023/05/06 03:05:25;;;;;;;0.20;0.20;;;;;;;11.68;100.00;101207.03;4983141;28;20248;-79
2023/05/06 03:07:52;;;;;;;0.10;0.10;;;;;;;11.60;100.00;101206.03;4984491;28;20271;-80
2023/05/06 03:10:19;;;;;;;0.10;0.10;;;;;;;11.34;100.00;101197.63;4979079;28;20648;-79
2023/05/06 03:12:47;;;;;;;0.10;0.10;;;;;;;11.33;100.00;101195.84;4989235;28;20224;-81
2023/05/06 03:15:14;;;;;;;0.32;0.32;;;11.20;99.90;;;11.42;100.00;101198.66;4985678;28;20228;-80
2023/05/06 03:17:41;;;;;;;0.10;0.10;;;11.20;99.90;;;11.41;100.00;101203.91;4988342;28;20332;-79
2023/05/06 03:20:09;;;;;;;0.38;0.38;;;;;;;11.57;100.00;101207.72;4982857;28;20232;-81
2023/05/06 03:22:36;;;;;;;0.10;0.10;;;;;;;11.64;100.00;101209.63;4988814;28;20745;-79
2023/05/06 03:25:04;;;;;;;0.73;0.73;;;;;;;11.64;100.00;101218.47;4987290;28;20228;-81
2023/05/06 03:27:32;;;;;;;0.20;0.20;;;;;;;11.57;100.00;101207.72;4989549;28;20268;-78
2023/05/06 03:29:59;;;;;;;0.10;0.10;;;;;;;11.60;100.00;101216.63;5002090;28;20260;-81
2023/05/06 03:32:27;;;;;;;0.15;0.15;;;;;;;11.52;100.00;101210.28;4988299;28;20267;-79
2023/05/06 03:34:54;;;;;;;0.10;0.10;;;;;;;11.36;100.00;101201.19;4984520;28;20237;-79
2023/05/06 03:37:21;;;;;;;0.20;0.20;;;;;;;11.36;100.00;101206.50;4979497;28;20754;-80
2023/05/06 03:39:49;;;;;;;0.10;0.10;;;;;;;11.33;100.00;101200.25;4980145;28;20253;-83
2023/05/06 03:42:16;;;;;;;0.22;0.22;;;;;;;11.17;100.00;101196.41;4982935;28;20626;-80
2023/05/06 03:44:44;;;;;;;0.30;0.30;;;;;;;11.16;100.00;101203.47;4979804;28;20240;-81
2023/05/06 03:47:12;;;;;;;0.10;0.10;;;;;;;10.88;100.00;101195.88;4982737;28;20332;-80
2023/05/06 03:49:39;;;;;;;0.10;0.10;;;;;;;10.94;100.00;101198.63;4983454;28;20238;-82
2023/05/06 03:52:07;;;;;;;0.10;0.10;;;;;;;10.86;100.00;101200.22;4979823;28;20256;-87
2023/05/06 03:54:34;;;;;;;0.10;0.10;;;;;;;10.87;100.00;101208.19;5001516;28;20240;-79
2023/05/06 03:57:02;;;;;;;0.20;0.20;;;;;;;10.78;100.00;101193.91;4988505;28;20229;-88
2023/05/06 03:59:30;;;;;;;0.15;0.15;;;;;;;10.99;100.00;101212.84;4998277;28;20364;-79
2023/05/06 04:01:57;;;;;;;0.10;0.10;;;;;;;10.93;100.00;101206.53;4982706;28;20252;-84
2023/05/06 04:04:26;;;;;;;0.30;0.30;;;;;;;10.90;100.00;101216.19;4985064;28;20239;-81
2023/05/06 04:06:53;;;;;;;0.10;0.10;;;;;;;11.08;100.00;101228.91;4984631;28;20232;-79
2023/05/06 04:09:21;;;;;;;0.10;0.10;;;;;;;11.06;100.00;101235.94;4986385;28;20321;-82
2023/05/06 04:11:48;;;;;;;0.13;0.13;;;;;;;11.19;100.00;101245.00;4982312;28;20589;-82
2023/05/06 04:14:16;;;;;;;0.10;0.10;;;;;;;10.98;100.00;101237.53;4980099;28;20252;-79
2023/05/06 04:16:43;;;;;;;0.10;0.10;;;;;;;10.95;100.00;101237.47;4979029;28;20257;-79
2023/05/06 04:19:11;;;;;;;0.30;0.30;;;;;;;10.98;100.00;101240.19;4981036;28;20224;-85
2023/05/06 04:21:38;;;;;;;0.10;0.10;;;;;;;11.00;100.00;101241.09;4982974;28;20320;-85
2023/05/06 04:24:06;;;;;;;0.10;0.10;;;;;;;11.02;100.00;101239.38;4982322;28;20229;-79
2023/05/06 04:26:34;;;;;;;0.10;0.10;;;;;;;11.03;100.00;101240.25;4981761;28;20252;-82
2023/05/06 04:29:01;;;;;;;0.10;0.10;;;;;;;11.02;100.00;101243.78;4981194;28;20260;-80
2023/05/06 04:31:28;;;;;;;0.10;0.10;;;;;;;11.02;100.00;101249.06;4986440;28;20267;-79
2023/05/06 04:33:56;;;;;;;0.15;0.15;;;;;;;10.92;100.00;101248.00;4983308;28;20228;-79
2023/05/06 04:36:23;;;;;;;0.10;0.10;;;;;;;10.98;100.00;101253.41;4980269;28;20260;-82
2023/05/06 04:38:52;;;;;;;0.10;0.10;;;;;;;10.99;100.00;101260.47;4983767;28;20252;-80
2023/05/06 04:41:19;;;;;;;0.98;0.98;;;;;;;10.93;100.00;101260.34;4987484;28;20232;-79
2023/05/06 04:43:46;;;;;;;0.10;0.10;;;;;;;10.90;100.00;101249.72;4988776;28;20256;-81
2023/05/06 04:46:13;;;;;;;0.30;0.30;;;10.80;99.90;;;10.92;100.00;101257.69;4989959;28;20260;-79
2023/05/06 04:48:41;;;;;;;0.25;0.25;;;;;;;10.82;100.00;101244.25;4990940;28;20267;-82
2023/05/06 04:51:08;;;;;;;0.45;0.45;;;;;;;10.81;100.00;101237.19;5006788;28;20705;-82
2023/05/06 04:53:36;;;;;;;0.10;0.10;;;;;;;10.66;100.00;101234.22;4985583;28;20260;-81
2023/05/06 04:56:03;;;;;;;0.10;0.10;;;;;;;10.78;100.00;101231.81;4993961;28;20268;-80
2023/05/06 04:58:31;;;;;;;0.10;0.10;;;;;;;10.90;100.00;101242.66;4989937;28;20716;-79
2023/05/06 05:01:03;;;;;;;0.10;0.10;;;10.70;99.90;;;10.99;100.00;101243.72;4988721;28;20306;-79
2023/05/06 05:03:30;;;;;;;0.10;0.10;;;10.80;99.90;;;11.01;100.00;101242.88;5007274;28;20319;-79
2023/05/06 05:05:58;;;;;;;0.00;0.00;;;;;;;11.16;100.00;101253.78;4987797;28;20614;-83
2023/05/06 05:08:25;;;;;;;0.10;0.10;;;;;;;11.30;100.00;101242.56;4985654;28;20244;-79
2023/05/06 05:10:53;;;;;;;0.20;0.20;;;;;;;11.42;100.00;101263.97;4992464;28;20244;-79
2023/05/06 05:13:20;;;;;;;0.10;0.10;;;;;;;11.59;100.00;101275.78;4991931;28;20304;-80
2023/05/06 05:15:47;;;;;;;0.10;0.10;;;;;;;11.62;100.00;101275.81;4989327;28;20236;-81
2023/05/06 05:18:15;;;;;;;0.10;0.10;;;;;;;11.72;100.00;101288.41;4992353;28;20665;-81
2023/05/06 05:20:42;;;;;;;0.10;0.10;;;;;;;11.81;100.00;101288.59;4992977;28;20243;-79
2023/05/06 05:23:10;;;;;;;0.10;0.10;;;;;;;11.88;100.00;101297.56;4989971;28;20232;-80
2023/05/06 05:25:37;;;;;;;0.10;0.10;;;;;;;11.97;100.00;101307.44;4984993;28;20260;-81
2023/05/06 05:28:04;;;;;;;0.10;0.10;;;;;;;12.07;100.00;101312.03;5007765;28;20689;-79
2023/05/06 05:30:32;;;;;;;0.25;0.25;;;;;;;12.13;100.00;101317.41;4992136;28;20232;-79
2023/05/06 05:32:59;;;;;;;0.10;0.10;;;;;;;12.23;100.00;101321.13;4991579;28;20232;-80
2023/05/06 05:35:27;;;;;;;0.10;0.10;;;;;;;12.28;100.00;101333.59;4985158;28;20247;-79
2023/05/06 05:37:54;;;;;;;0.10;0.10;;;;;;;12.46;100.00;101347.16;5001035;28;20228;-81
2023/05/06 05:40:21;;;;;;;0.10;0.10;;;12.20;99.90;;;12.49;100.00;101347.19;4988301;28;20716;-79
2023/05/06 05:42:49;;;;;;;0.10;0.10;;;;;;;12.72;100.00;101354.59;4992967;28;20283;-81
2023/05/06 05:45:17;;;;;;;0.10;0.10;;;;;;;12.67;100.00;101351.00;4989937;28;20232;-86
2023/05/06 05:47:44;;;;;;;0.10;0.10;;;;;;;12.80;100.00;101358.28;4983922;28;20310;-80
2023/05/06 05:50:11;;;;;;;0.10;0.10;;;12.60;99.90;;;12.88;100.00;101353.06;4986395;28;20236;-79
2023/05/06 05:52:39;;;;;;;0.10;0.10;;;;;;;12.98;100.00;101360.28;4980132;28;20324;-83
2023/05/06 05:55:07;;;;;;;1.45;0.55;;;;;;;13.14;100.00;101360.56;4988573;28;20225;-79
2023/05/06 05:57:35;;;;;;;0.10;0.10;;;;;;;13.22;100.00;101352.72;4988346;28;20237;-79
2023/05/06 06:00:04;;;;;;;0.17;0.17;;;12.90;99.90;;;13.26;100.00;101351.00;4983632;28;20236;-79
2023/05/06 06:02:33;;;;;;;0.10;0.10;;;;;;;13.40;100.00;101352.94;4980724;28;20332;-84
2023/05/06 06:05:00;;;;;;;0.10;0.10;;;;;;;13.48;100.00;101346.84;4985725;28;20224;-80
2023/05/06 06:07:28;;;;;;;0.10;0.10;;;;;;;13.51;100.00;101353.06;4988540;28;20244;-79
2023/05/06 06:09:55;;;;;;;0.08;0.08;;;;;;;13.63;100.00;101352.31;4987227;28;20236;-82
2023/05/06 06:12:24;;;;;;;0.63;0.63;;;;;;;13.66;100.00;101352.34;4995431;28;20747;-81
2023/05/06 06:14:52;;;;;;;0.10;0.10;;;;;;;13.72;100.00;101348.00;4996409;28;20240;-80
2023/05/06 06:17:20;;;;;;;2.55;0.73;;;;;;;13.83;100.00;101347.22;4990111;28;20235;-81
2023/05/06 06:19:47;;;;;;;0.10;0.10;;;;;;;13.97;100.00;101349.13;4993086;28;20240;-82
2023/05/06 06:22:14;;;;;;;0.00;0.00;;;13.60;99.90;;;13.88;100.00;101327.78;4986596;28;20326;-79
2023/05/06 06:24:42;;;;;;;0.15;0.15;;;13.70;99.90;;;14.00;100.00;101327.00;4986508;28;20283;-78
2023/05/06 06:27:10;;;;;;;0.35;0.35;;;;;;;14.10;100.00;101327.09;4980360;28;20735;-78
2023/05/06 06:29:37;;;;;;;0.82;0.82;;;;;;;14.15;100.00;101318.25;4970674;28;20264;-78
2023/05/06 06:32:05;;;;;;;0.10;0.10;;;14.00;99.90;;;14.42;100.00;101310.56;4983012;28;20252;-80
2023/05/06 06:34:32;;;;;;;0.57;0.57;;;;;;;14.46;100.00;101296.41;5006193;28;20236;-81
2023/05/06 06:36:59;;;;;;;1.30;0.40;;;14.20;99.90;;;14.58;100.00;101298.25;4988374;28;20264;-82
2023/05/06 06:39:27;;;;;;;0.38;0.38;;;14.20;99.90;;;14.50;100.00;101270.69;4985941;28;20239;-83
2023/05/06 06:41:57;;;;;;;0.73;0.65;;;14.30;99.90;;;14.68;100.00;101276.13;4990423;28;20232;-82
2023/05/06 06:44:24;;;;;;;0.57;0.57;;;14.30;99.90;;;14.69;100.00;101262.81;4986640;28;20259;-80
2023/05/06 06:46:51;;;;;;;0.15;0.15;;;14.30;99.90;;;14.68;100.00;101249.50;4986500;28;20275;-80
2023/05/06 06:49:19;;;;;;;0.10;0.10;;;;;;;14.75;100.00;101245.09;4981429;28;20230;-80
2023/05/06 06:51:46;;;;;;;0.60;0.60;;;14.40;99.90;;;14.80;100.00;101230.03;4984762;28;20755;-80
2023/05/06 06:54:13;;;;;;;0.38;0.38;;;14.40;99.90;;;14.97;100.00;101210.56;4989809;28;20232;-79
2023/05/06 06:56:40;;;;;;;0.10;0.10;;;14.60;99.90;;;14.87;100.00;101192.78;4988077;28;20302;-80
2023/05/06 06:59:11;;;;;;;0.00;0.00;;;;;;;14.96;100.00;101187.47;4981756;28;20272;-80
2023/05/06 07:01:42;;;;;;;0.43;0.43;;;14.70;99.90;;;14.97;100.00;101175.94;4984317;28;20252;-81
2023/05/06 07:04:13;;;;;;;0.43;0.43;;;;;;;15.07;100.00;101167.97;4994052;28;20773;-83
2023/05/06 07:06:41;;;;;;;0.10;0.10;;;;;;;15.19;100.00;101152.00;4985116;28;20240;-84
2023/05/06 07:09:09;;;;;;;0.22;0.22;;;;;;;15.31;100.00;101144.94;4986754;28;20232;-82
2023/05/06 07:11:36;;;;;;;0.30;0.30;;;;;;;15.62;100.00;101153.88;4984192;28;20229;-81
2023/05/06 07:14:04;;;;;;;0.10;0.10;;;;;;;15.85;100.00;101144.97;4994363;28;20247;-80
2023/05/06 07:16:32;;;;;;;0.25;0.25;;;;;;;16.00;100.00;101140.50;4987879;28;20327;-80
2023/05/06 07:19:04;;;;;;;0.10;0.10;;;;;;;16.03;100.00;101138.72;4977123;28;20309;-85
2023/05/06 07:21:32;;;;;;;0.08;0.08;;;;;;;15.83;100.00;101110.31;5000084;28;20306;-81
2023/05/06 07:24:00;;;;;;;0.65;0.65;;;15.60;99.90;;;15.92;100.00;101088.06;4992018;28;20229;-81
2023/05/06 07:26:27;;;;;;;0.00;0.00;;;;;;;16.13;100.00;101079.09;4998839;28;20231;-80
2023/05/06 07:28:55;;;;;;;0.10;0.10;;;;;;;16.18;100.00;101048.84;4978214;28;20259;-81
2023/05/06 07:31:23;;;;;;;0.10;0.10;;;;;;;16.23;100.00;101014.13;4988989;28;20267;-80
2023/05/06 07:34:01;;;;;;;0.10;0.10;;;;;;;16.12;100.00;100983.94;4989956;28;20232;-80
2023/05/06 07:36:29;;;;;;;0.05;0.05;;;;;;;16.40;100.00;100982.00;4993025;28;20812;-81
2023/05/06 07:38:57;;;;;;;0.00;0.00;;;;;;;16.28;100.00;100958.94;5000339;28;20244;-86
2023/05/06 07:41:25;;;;;;;0.08;0.08;;;;;;;16.50;100.00;100962.38;4982073;28;20228;-80
2023/05/06 07:43:54;;;;;;;0.25;0.25;;;;;;;16.45;100.00;100932.13;4985921;28;20229;-80
2023/05/06 07:46:27;;;;;;;0.52;0.52;;;;;;;16.57;100.00;100935.59;5001757;28;20305;-83
2023/05/06 07:48:55;;;;;;;0.00;0.00;;;;;;;16.84;100.00;100960.34;4987976;28;20232;-80
2023/05/06 07:51:23;;;;;;;0.13;0.13;;;;;;;16.85;100.00;100922.06;4982839;28;20240;-80
2023/05/06 07:53:50;;;;;;;1.55;0.57;;;;;;;17.20;100.00;100932.44;4990273;28;20236;-80
2023/05/06 07:56:20;;;;;;;0.00;0.00;;;16.80;99.90;;;17.35;100.00;100918.03;4985703;28;20232;-80
2023/05/06 07:58:48;;;;;;;0.52;0.52;;;;;;;17.60;100.00;100908.81;4982741;28;20247;-80
2023/05/06 08:01:15;;;;;;;0.10;0.10;;;;;;;17.14;100.00;100853.22;4988546;28;20246;-87
2023/05/06 08:03:43;;;;;;;0.00;0.00;;;;;;;17.23;100.00;100839.75;4982791;28;20228;-80
2023/05/06 08:06:11;;;;;;;0.20;0.20;;;;;;;17.36;100.00;100820.88;4976259;28;20236;-83
2023/05/06 08:08:41;;;;;;;0.00;0.00;;;;;;;17.51;100.00;100805.53;4971749;28;20862;-81
2023/05/06 08:11:09;;;;;;;0.10;0.10;;;;;;;17.40;100.00;100761.13;4992415;28;20282;-86
2023/05/06 08:13:36;;;;;;;0.00;0.00;;;17.20;99.90;;;17.44;100.00;100747.69;4988276;28;20356;-82
2023/05/06 08:16:05;;;;;;;0.00;0.00;;;17.20;99.90;;;17.43;100.00;100713.84;4984681;28;20251;-83
2023/05/06 08:18:33;;;;;;;0.00;0.00;;;;;;;18.22;100.00;100763.47;4986443;28;20231;-82
2023/05/06 08:21:00;;;;;;;0.00;0.00;;;;;;;18.24;100.00;100677.78;4993019;28;20229;-82
2023/05/06 08:23:28;;;;;;;0.03;0.03;;;;;;;18.73;100.00;100707.22;4997260;28;20270;-82
2023/05/06 08:25:55;;;;;;;0.00;0.00;;;;;;;18.77;100.00;100666.03;4997760;28;20339;-82
2023/05/06 08:28:28;;;;;;;0.08;0.08;;;18.40;99.90;;;18.66;100.00;100646.63;4989607;28;20243;-83
2023/05/06 08:30:55;;;;;;;0.00;0.00;;;18.40;99.90;;;18.68;100.00;100652.84;4986600;28;20247;-78
2023/05/06 08:33:22;;;;;;;0.00;0.00;;;18.40;99.90;;;18.46;100.00;100620.22;4987745;28;20232;-81
2023/05/06 08:35:49;;;;;;;0.10;0.10;;;18.60;99.90;;;19.11;100.00;100673.34;4993755;28;20264;-79
2023/05/06 08:38:17;;;;;;;0.00;0.00;;;;;;;18.78;100.00;100621.38;4988426;28;20236;-82
2023/05/06 08:40:44;;;;;;;0.00;0.00;;;18.60;99.90;;;18.78;100.00;100598.16;4993611;28;20228;-78
2023/05/06 08:43:13;;;;;;;0.00;0.00;;;19.00;99.90;;;19.45;100.00;100626.06;4993011;28;20239;-79
2023/05/06 08:45:41;;;;;;;0.00;0.00;;;;;;;19.59;100.00;100619.56;4989958;28;20255;-79
2023/05/06 08:48:08;;;;;;;0.00;0.00;;;19.30;99.90;;;19.54;100.00;100608.94;4989965;28;20232;-79
2023/05/06 08:50:44;;;;;;;0.00;0.00;;;19.60;99.90;;;19.76;100.00;100585.13;4988502;28;20236;-79
2023/05/06 08:53:12;;;;;;;0.05;0.05;;;19.80;99.90;;;19.98;100.00;100589.00;4972410;28;20227;-83
2023/05/06 08:55:41;;;;;;;0.13;0.13;;;20.00;99.90;;;20.23;100.00;100599.06;4982556;28;20733;-80
2023/05/06 08:58:12;;;;;;;0.00;0.00;;;20.20;99.90;;;20.34;100.00;100572.78;4988053;28;20232;-79
2023/05/06 09:00:40;;;;;;;0.03;0.03;;;;;;;19.56;100.00;100456.00;4984916;28;20282;-84
2023/05/06 09:03:07;;;;;;;0.00;0.00;;;;;;;20.14;100.00;100520.50;4993897;28;20239;-77
2023/05/06 09:05:35;;;;;;;0.00;0.00;;;;;;;20.44;100.00;100505.34;4992663;28;20231;-80
2023/05/06 09:08:02;;;;;;;0.00;0.00;;;;;;;20.51;100.00;100505.16;4987153;28;20236;-79
2023/05/06 09:10:43;;;;;;;0.05;0.05;;;20.70;99.90;;;20.54;100.00;100430.72;4991090;28;20239;-76
2023/05/06 09:13:16;;;;;;;0.00;0.00;;;20.30;99.90;;;20.30;100.00;100418.91;4990365;28;20227;-76
2023/05/06 09:15:48;;;;;;;0.00;0.00;;;20.80;99.90;;;21.08;100.00;100502.44;4989170;28;20290;-76
2023/05/06 09:18:15;;;;;;;0.00;0.00;;;20.50;99.90;;;20.57;100.00;100403.75;4986544;28;20240;-79
2023/05/06 09:20:48;;;;;;;0.00;0.00;;;20.90;99.90;;;21.11;100.00;100424.38;4989150;28;20259;-78
2023/05/06 09:23:17;;;;;;;0.00;0.00;;;21.30;99.90;;;21.38;100.00;100418.06;4989480;28;20242;-81
2023/05/06 09:25:46;;;;;;;0.20;0.20;;;21.30;99.90;;;21.15;100.00;100337.28;4990302;28;20424;-78
2023/05/06 09:28:14;;;;;;;0.00;0.00;;;21.20;99.90;;;21.38;100.00;100390.28;4977393;28;20643;-84
2023/05/06 09:30:43;;;;;;;0.00;0.00;;;19.90;99.90;;;21.97;100.00;100398.81;4993579;28;20228;-78
2023/05/06 09:33:11;;;;;;;0.00;0.00;;;;;;;21.34;100.00;100297.16;4985558;28;20243;-80
2023/05/06 09:35:41;;;;;;;0.00;0.00;;;21.40;99.90;;;21.60;100.00;100344.63;4995091;28;20246;-82
2023/05/06 09:38:09;;;;;;;0.35;0.10;;;21.00;99.90;;;20.64;100.00;100222.59;4987844;28;20255;-80
2023/05/06 09:40:38;;;;;;;0.15;0.15;;;21.20;99.90;;;21.57;100.00;100329.47;4987313;28;20342;-78
2023/05/06 09:43:05;;;;;;;0.10;0.10;;;21.60;99.90;;;22.09;100.00;100346.31;4990222;28;20322;-80
2023/05/06 09:45:33;;;;;;;0.00;0.00;;;;;;;21.79;100.00;100264.91;4985067;28;20235;-78
2023/05/06 09:48:00;;;;;;;0.00;0.00;;;;;;;21.96;100.00;100294.72;4985505;28;20263;-79
2023/05/06 09:50:28;;;;;;;0.22;0.22;;;22.30;99.90;;;22.24;100.00;100250.59;4984101;28;20258;-79
2023/05/06 09:52:56;;;;;;;0.00;0.00;;;22.00;99.90;;;21.76;100.00;100134.97;4990198;28;20440;-78
2023/05/06 09:55:25;;;;;;;0.00;0.00;;;21.40;99.90;;;20.95;100.00;100061.09;4950147;28;20227;-78
2023/05/06 09:57:54;;;;;;;0.10;0.10;;;20.90;99.90;;;20.63;100.00;100088.28;4983909;28;20327;-78
2023/05/06 10:01:09;;;;;;;0.00;0.00;;;21.10;99.90;;;21.15;100.00;100146.34;4984495;28;20228;-79
2023/05/06 10:03:40;;;;;;;0.00;0.00;;;;;;;21.02;100.00;100118.19;4985423;28;20718;-79
2023/05/06 10:06:10;;;;;;;0.00;0.00;;;21.30;99.90;;;21.19;100.00;100101.38;4987843;28;20231;-87
2023/05/06 10:08:40;;;;;;;0.00;0.00;;;20.30;99.90;;;20.16;100.00;99950.41;4989024;28;20238;-81
2023/05/06 10:11:07;;;;;;;0.00;0.00;;;;;;;20.69;100.00;100020.91;4985071;28;20258;-79
2023/05/06 10:13:37;;;;;;;0.13;0.13;;;21.50;99.90;;;21.96;100.00;100161.91;4986726;28;20231;-79
2023/05/06 10:16:05;;;;;;;0.00;0.00;;;22.30;99.90;;;21.69;100.00;100008.72;4986854;28;20242;-80
2023/05/06 10:18:36;;;;;;;0.00;0.00;;;21.30;99.90;;;20.45;100.00;99915.28;4985000;28;20315;-80
2023/05/06 10:21:14;;;;;;;0.00;0.00;;;20.50;99.90;;;20.51;100.00;99987.56;4990249;28;20702;-80
2023/05/06 10:23:55;;;;;;;0.00;0.00;;;20.80;99.90;;;20.79;100.00;100016.91;4983287;28;20318;-78
2023/05/06 10:26:25;;;;;;;0.00;0.00;;;20.90;99.90;;;21.17;100.00;100038.72;4979429;28;20314;-79
2023/05/06 10:28:53;;;;;;;0.00;0.00;;;21.70;99.90;;;21.75;100.00;100023.72;4986264;28;20244;-79
2023/05/06 10:31:21;;;;;;;0.00;0.00;;;;;;;22.13;100.00;100030.19;4989056;28;20727;-82
2023/05/06 10:33:51;;;;;;;0.00;0.00;;;22.40;99.90;;;21.97;100.00;99935.69;5000159;28;20242;-79
2023/05/06 10:36:27;;;;;;;0.00;0.00;;;21.70;99.90;;;21.55;100.00;99848.81;4986808;28;20219;-81
2023/05/06 10:38:59;;;;;;;0.90;0.30;;;21.30;99.90;;;21.43;100.00;99865.50;4983810;28;20235;-80
2023/05/06 10:41:28;;;;;;;0.00;0.00;;;21.30;99.90;;;21.59;100.00;99820.84;4985987;28;20224;-81
2023/05/06 10:43:56;;;;;;;0.00;0.00;;;22.00;99.90;;;22.50;100.00;99980.88;4984127;28;20238;-82
2023/05/06 10:46:28;;;;;;;0.00;0.00;;;22.40;99.90;;;22.71;100.00;99956.53;4988727;28;20227;-78
2023/05/06 10:49:09;;;;;;;0.10;0.10;;;22.90;99.90;;;23.04;100.00;99933.34;4999686;28;20243;-78
2023/05/06 10:51:37;;;;;;;0.47;0.47;;;22.40;99.90;;;22.74;100.00;99844.06;4982658;28;20271;-78
2023/05/06 10:54:07;;;;;;;0.15;0.08;;;22.70;99.90;;;23.11;100.00;99885.34;4987035;28;20308;-77
2023/05/06 10:56:36;;;;;;;0.13;0.08;;;22.30;99.90;;;22.27;100.00;99714.41;4983174;28;20274;-76